Time;durP1;ratioP1;P1;durP2;ratioP2;P2;SDS_P1;SDS_P2;PMS_P1;PMS_P2;Temp;Humidity;BMP_temperature;BMP_pressure;BME280_temperature;BME280_humidity;BME280_pressure;Samples;Min_cycle;Max_cycle;Signal;HPM_P1;HPM_P2
2022/12/12 00:00:12;;;;;;;18.45;11.73;;;6.90;97.70;;;;;;5112774;28;20011;-49
2022/12/12 00:02:40;;;;;;;17.48;11.43;;;6.80;97.60;;;;;;5113020;28;20469;-52
2022/12/12 00:05:07;;;;;;;16.88;11.40;;;6.80;97.80;;;;;;5112873;28;20541;-49
2022/12/12 00:07:32;;;;;;;18.33;11.57;;;6.90;97.80;;;;;;5112664;28;20088;-51
2022/12/12 00:09:59;;;;;;;17.15;10.93;;;6.90;97.80;;;;;;5112243;28;20472;-52
2022/12/12 00:12:25;;;;;;;17.27;11.45;;;7.00;98.00;;;;;;5112784;28;20012;-50
2022/12/12 00:14:51;;;;;;;18.33;11.40;;;7.00;97.50;;;;;;5112835;28;20049;-53
2022/12/12 00:17:16;;;;;;;16.20;10.65;;;7.10;97.50;;;;;;5112487;28;20050;-51
2022/12/12 00:19:42;;;;;;;14.95;10.82;;;7.10;97.50;;;;;;5112277;28;20031;-51
2022/12/12 00:22:08;;;;;;;17.17;11.18;;;7.10;97.40;;;;;;5112662;28;20494;-53
2022/12/12 00:24:34;;;;;;;15.65;10.57;;;7.10;97.40;;;;;;5112552;28;20030;-52
2022/12/12 00:27:00;;;;;;;15.82;10.57;;;7.20;97.40;;;;;;5111122;28;20469;-55
2022/12/12 00:29:25;;;;;;;17.20;11.38;;;7.20;97.40;;;;;;5111970;28;20031;-55
2022/12/12 00:31:51;;;;;;;17.75;11.45;;;7.20;97.30;;;;;;5112435;28;20032;-51
2022/12/12 00:34:17;;;;;;;16.42;10.80;;;7.10;97.30;;;;;;5112456;28;20031;-51
2022/12/12 00:36:42;;;;;;;16.77;10.70;;;7.10;97.30;;;;;;5112290;28;20526;-52
2022/12/12 00:39:08;;;;;;;16.77;10.60;;;7.10;97.40;;;;;;5111802;28;20023;-52
2022/12/12 00:41:36;;;;;;;16.88;10.57;;;7.00;97.40;;;;;;5112133;28;20032;-56
2022/12/12 00:44:02;;;;;;;16.67;11.43;;;7.00;97.40;;;;;;5112220;28;20024;-51
2022/12/12 00:46:27;;;;;;;15.43;10.40;;;6.90;97.40;;;;;;5112250;28;20033;-50
2022/12/12 00:48:56;;;;;;;17.55;10.65;;;6.90;97.50;;;;;;5111643;28;20027;-53
2022/12/12 00:51:24;;;;;;;17.75;10.95;;;6.90;97.50;;;;;;5111956;28;20049;-54
2022/12/12 00:53:50;;;;;;;16.95;11.60;;;6.90;97.50;;;;;;5112211;27;20415;-54
2022/12/12 00:56:17;;;;;;;18.85;11.32;;;6.80;97.50;;;;;;5110639;28;20306;-53
2022/12/12 00:58:43;;;;;;;18.58;11.15;;;6.80;97.60;;;;;;5111337;28;20032;-52
2022/12/12 01:01:16;;;;;;;17.52;10.95;;;6.80;97.60;;;;;;5111944;28;20027;-51
2022/12/12 01:03:43;;;;;;;16.40;10.63;;;6.80;97.60;;;;;;5111913;28;20039;-49
2022/12/12 01:06:09;;;;;;;16.85;11.00;;;6.80;97.70;;;;;;5111654;27;20444;-51
2022/12/12 01:08:35;;;;;;;17.40;10.77;;;6.80;97.70;;;;;;5110920;28;20146;-51
2022/12/12 01:11:01;;;;;;;17.13;10.80;;;6.90;97.70;;;;;;5111767;28;20102;-48
2022/12/12 01:13:29;;;;;;;18.30;11.20;;;7.00;97.50;;;;;;5111763;28;20094;-50
2022/12/12 01:15:55;;;;;;;19.35;11.13;;;7.00;97.40;;;;;;5111587;28;20035;-51
2022/12/12 01:18:20;;;;;;;15.02;10.00;;;7.10;97.40;;;;;;5111042;28;20033;-50
2022/12/12 01:20:46;;;;;;;17.17;11.02;;;7.10;97.40;;;;;;5111566;28;20055;-52
2022/12/12 01:23:12;;;;;;;16.65;10.85;;;7.10;97.30;;;;;;5111611;28;20020;-53
2022/12/12 01:25:38;;;;;;;16.08;11.02;;;7.10;97.30;;;;;;5111603;28;20412;-54
2022/12/12 01:28:04;;;;;;;18.48;11.32;;;7.10;97.30;;;;;;5111352;28;20020;-54
2022/12/12 01:30:30;;;;;;;16.60;11.07;;;7.10;97.20;;;;;;5111399;28;20031;-54
2022/12/12 01:32:56;;;;;;;16.42;10.55;;;7.10;97.20;;;;;;5111493;28;20418;-51
2022/12/12 01:35:23;;;;;;;15.95;10.60;;;7.10;97.20;;;;;;5111288;28;20034;-49
2022/12/12 01:37:48;;;;;;;16.48;10.85;;;7.10;97.30;;;;;;5111293;28;20028;-51
2022/12/12 01:40:20;;;;;;;17.98;10.48;;;7.00;97.30;;;;;;5111304;28;20019;-51
2022/12/12 01:42:46;;;;;;;16.30;10.05;;;7.00;97.30;;;;;;5111500;28;20020;-52
2022/12/12 01:45:49;;;;;;;15.07;9.70;;;6.90;97.30;;;;;;5111330;28;20030;-51
2022/12/12 01:48:15;;;;;;;15.73;10.02;;;6.90;97.40;;;;;;5110693;28;20066;-52
2022/12/12 01:50:43;;;;;;;17.73;10.75;;;6.90;97.40;;;;;;5111457;28;20024;-49
2022/12/12 01:53:12;;;;;;;15.73;10.75;;;6.90;97.40;;;;;;5110073;28;20436;-51
2022/12/12 01:55:38;;;;;;;16.23;10.70;;;6.80;97.40;;;;;;5111168;28;20023;-51
2022/12/12 01:58:03;;;;;;;16.80;10.50;;;6.80;97.50;;;;;;5110535;28;20028;-49
2022/12/12 02:00:30;;;;;;;15.80;10.27;;;6.80;97.50;;;;;;5111181;28;20019;-52
2022/12/12 02:02:56;;;;;;;16.83;11.23;;;6.70;97.50;;;;;;5111172;28;20072;-51
2022/12/12 02:05:36;;;;;;;16.90;10.25;;;6.80;97.70;;;;;;5111213;28;20107;-52
2022/12/12 02:08:04;;;;;;;15.43;10.30;;;6.80;98.00;;;;;;5110601;28;20164;-53
2022/12/12 02:10:30;;;;;;;15.02;10.82;;;6.90;97.60;;;;;;5110920;28;20035;-55
2022/12/12 02:13:02;;;;;;;17.48;10.32;;;6.90;97.40;;;;;;5111026;28;20027;-51
2022/12/12 02:15:37;;;;;;;18.90;10.38;;;7.00;97.30;;;;;;5110988;28;20031;-52
2022/12/12 02:18:25;;;;;;;17.33;10.60;;;7.10;97.60;;;;;;5110568;28;20027;-51
2022/12/12 02:20:56;;;;;;;15.65;10.05;;;7.10;97.20;;;;;;5112499;28;20038;-52
2022/12/12 02:23:50;;;;;;;16.50;10.60;;;7.10;97.20;;;;;;5114846;28;20430;-51
2022/12/12 02:26:37;;;;;;;13.40;9.70;;;7.10;97.20;;;;;;5114813;28;20031;-49
2022/12/12 02:29:40;;;;;;;15.30;10.50;;;7.10;97.10;;;;;;5114343;28;20529;-53
2022/12/12 02:32:33;;;;;;;16.10;10.50;;;7.10;97.10;;;;;;5114708;28;20043;-51
2022/12/12 02:35:42;;;;;;;15.25;10.18;;;7.10;97.10;;;;;;5114710;28;20426;-52
2022/12/12 02:38:23;;;;;;;15.13;9.93;;;7.00;97.10;;;;;;5114202;28;20039;-52
2022/12/12 02:41:10;;;;;;;13.65;9.93;;;7.00;97.20;;;;;;5114711;28;20435;-52
2022/12/12 02:44:05;;;;;;;15.32;9.93;;;6.90;97.20;;;;;;5114999;28;20365;-49
2022/12/12 02:46:45;;;;;;;18.48;10.40;;;6.90;97.20;;;;;;5114497;28;20042;-50
2022/12/12 02:49:20;;;;;;;15.02;9.77;;;6.80;97.20;;;;;;5114024;28;20464;-51
2022/12/12 02:51:48;;;;;;;15.95;10.90;;;6.80;97.30;;;;;;5114467;27;20023;-53
2022/12/12 02:54:16;;;;;;;15.75;10.38;;;6.80;97.30;;;;;;5114288;28;20036;-50
2022/12/12 02:56:46;;;;;;;14.95;9.98;;;6.70;97.30;;;;;;5114016;28;20028;-52
2022/12/12 02:59:36;;;;;;;15.02;10.68;;;6.70;97.30;;;;;;5113784;28;20054;-52
2022/12/12 03:02:01;;;;;;;16.48;10.68;;;6.70;97.30;;;;;;5114278;28;20165;-52
2022/12/12 03:07:57;;;;;;;15.10;9.65;;;6.70;97.40;;;;;;5114044;28;20119;-51
2022/12/12 03:10:47;;;;;;;15.90;10.38;;;6.80;97.40;;;;;;5114000;27;20042;-50
2022/12/12 03:13:50;;;;;;;17.40;11.20;;;6.90;97.30;;;;;;5113939;28;20027;-49
2022/12/12 03:16:29;;;;;;;15.27;9.88;;;7.00;97.20;;;;;;5114012;28;20374;-52
2022/12/12 03:19:10;;;;;;;15.05;10.10;;;7.00;97.10;;;;;;5113362;28;20024;-54
2022/12/12 03:21:50;;;;;;;15.77;9.95;;;7.00;97.10;;;;;;5113489;28;20020;-54
2022/12/12 03:24:22;;;;;;;18.17;11.02;;;7.00;97.00;;;;;;5113821;28;20050;-53
2022/12/12 03:27:13;;;;;;;15.63;10.15;;;7.00;97.00;;;;;;5113726;28;20027;-52
2022/12/12 03:29:45;;;;;;;16.73;10.38;;;7.00;96.90;;;;;;5113234;28;20081;-51
2022/12/12 03:32:16;;;;;;;15.52;10.20;;;7.00;96.90;;;;;;5113500;28;20106;-51
2022/12/12 03:34:48;;;;;;;17.42;11.48;;;6.90;96.90;;;;;;5113705;28;20026;-48
2022/12/12 03:37:34;;;;;;;16.45;10.60;;;6.90;96.90;;;;;;5113458;28;20416;-51
2022/12/12 03:40:40;;;;;;;17.25;11.18;;;6.90;97.00;;;;;;5113369;28;20024;-53
2022/12/12 03:43:14;;;;;;;17.85;10.43;;;6.90;97.00;;;;;;5107605;28;20081;-51
2022/12/12 03:46:38;;;;;;;16.95;10.77;;;6.80;97.00;;;;;;5114003;28;20522;-51
2022/12/12 03:49:14;;;;;;;18.67;11.82;;;6.80;97.10;;;;;;5098233;28;20051;-55
2022/12/12 03:51:46;;;;;;;15.45;10.18;;;6.70;97.10;;;;;;5113394;28;20023;-52
2022/12/12 03:54:21;;;;;;;16.63;10.38;;;6.70;97.10;;;;;;5113346;27;20039;-57
2022/12/12 03:56:54;;;;;;;14.88;10.55;;;6.70;97.20;;;;;;5113088;28;20477;-54
2022/12/12 03:59:35;;;;;;;15.35;10.32;;;6.60;97.20;;;;;;5112804;28;20050;-53
2022/12/12 04:02:31;;;;;;;15.35;9.98;;;6.60;97.20;;;;;;5113150;28;20024;-55
2022/12/12 04:05:17;;;;;;;18.70;11.20;;;6.60;97.30;;;;;;5113049;28;20553;-52
2022/12/12 04:07:58;;;;;;;16.90;10.90;;;6.70;97.30;;;;;;5112735;28;20019;-54
2022/12/12 04:13:28;;;;;;;16.65;10.48;;;6.80;97.10;;;;;;5112897;28;20054;-53
2022/12/12 04:16:06;;;;;;;13.70;9.88;;;6.90;96.90;;;;;;5112671;28;20020;-53
2022/12/12 04:18:52;;;;;;;16.95;11.13;;;6.90;96.90;;;;;;5112099;28;20026;-55
2022/12/12 04:24:47;;;;;;;15.25;10.40;;;6.90;96.90;;;;;;5112566;28;20050;-52
2022/12/12 04:27:23;;;;;;;17.20;9.82;;;7.00;96.80;;;;;;5112586;28;20027;-50
2022/12/12 04:30:15;;;;;;;15.00;9.77;;;7.00;96.80;;;;;;5112123;28;20034;-49
2022/12/12 04:32:54;;;;;;;15.40;10.35;;;6.90;96.70;;;;;;5109654;28;20078;-53
2022/12/12 04:35:37;;;;;;;15.45;9.57;;;6.90;96.70;;;;;;5112329;28;20031;-52
2022/12/12 04:38:09;;;;;;;15.82;10.50;;;6.90;96.80;;;;;;5111884;28;20492;-49
2022/12/12 04:40:39;;;;;;;16.42;10.73;;;6.90;96.80;;;;;;5112339;28;20110;-50
2022/12/12 04:43:27;;;;;;;15.60;10.25;;;6.80;96.80;;;;;;5111678;28;20393;-53
2022/12/12 04:46:05;;;;;;;15.55;9.82;;;6.80;96.90;;;;;;5112351;28;20096;-51
2022/12/12 04:48:36;;;;;;;14.07;9.63;;;6.80;96.90;;;;;;5111451;28;20427;-51
2022/12/12 04:51:03;;;;;;;16.15;10.02;;;6.70;96.90;;;;;;5112554;28;20066;-51
2022/12/12 04:53:38;;;;;;;14.65;9.85;;;6.70;97.00;;;;;;5112134;28;20035;-51
2022/12/12 04:56:10;;;;;;;15.82;10.68;;;6.70;97.30;;;;;;5112017;28;20476;-53
2022/12/12 04:58:37;;;;;;;14.35;9.82;;;6.60;97.00;;;;;;5111535;28;20046;-51
2022/12/12 05:01:10;;;;;;;14.00;10.00;;;6.60;97.00;;;;;;5111919;27;20058;-52
2022/12/12 05:03:41;;;;;;;14.77;9.85;;;6.60;97.10;;;;;;5112060;27;20073;-55
2022/12/12 05:06:12;;;;;;;16.45;10.55;;;6.60;97.10;;;;;;5111990;28;20023;-51
2022/12/12 05:08:42;;;;;;;15.77;9.70;;;6.70;97.10;;;;;;5111400;28;20400;-53
2022/12/12 05:11:10;;;;;;;15.95;10.18;;;6.70;97.00;;;;;;5111928;28;20066;-53
2022/12/12 05:13:38;;;;;;;13.57;9.48;;;6.80;96.90;;;;;;5111657;28;20034;-51
2022/12/12 05:16:21;;;;;;;14.00;9.68;;;6.90;96.80;;;;;;5111634;28;20548;-50
2022/12/12 05:18:47;;;;;;;13.90;9.55;;;6.90;96.70;;;;;;5109782;28;20549;-52
2022/12/12 05:21:13;;;;;;;15.27;9.57;;;6.90;96.70;;;;;;5110317;27;20384;-49
2022/12/12 05:23:39;;;;;;;14.75;10.02;;;6.90;96.70;;;;;;5111747;28;20023;-49
2022/12/12 05:26:15;;;;;;;13.80;9.75;;;6.90;96.70;;;;;;5111430;28;20377;-51
2022/12/12 05:28:40;;;;;;;13.95;9.50;;;6.90;96.60;;;;;;5111006;28;20028;-53
2022/12/12 05:31:06;;;;;;;14.85;9.50;;;6.90;96.60;;;;;;5111646;28;20019;-51
2022/12/12 05:33:32;;;;;;;14.68;9.30;;;6.90;96.60;;;;;;5109626;28;20582;-51
2022/12/12 05:35:57;;;;;;;15.13;9.85;;;6.90;96.60;;;;;;5111280;28;20020;-49
2022/12/12 05:38:23;;;;;;;16.23;9.82;;;6.90;96.60;;;;;;5110753;28;20539;-51
2022/12/12 05:40:49;;;;;;;14.40;9.60;;;6.80;96.60;;;;;;5111270;28;20032;-53
2022/12/12 05:43:15;;;;;;;17.35;10.55;;;6.80;97.00;;;;;;5111365;28;20389;-54
2022/12/12 05:45:41;;;;;;;13.70;9.40;;;6.80;96.70;;;;;;5111378;28;20023;-53
2022/12/12 05:48:06;;;;;;;15.48;9.85;;;6.70;96.70;;;;;;5109470;28;20031;-54
2022/12/12 05:50:32;;;;;;;14.75;10.10;;;6.70;96.80;;;;;;5111198;28;20069;-49
2022/12/12 05:52:57;;;;;;;13.73;9.60;;;6.60;96.70;;;;;;5111205;28;20119;-49
2022/12/12 05:55:23;;;;;;;14.48;9.32;;;6.60;96.80;;;;;;5113612;28;20035;-49
2022/12/12 05:57:49;;;;;;;14.18;9.20;;;6.60;96.80;;;;;;5115188;28;20031;-51
2022/12/12 06:00:14;;;;;;;13.07;9.02;;;6.60;96.80;;;;;;5115304;28;20098;-50
2022/12/12 06:02:40;;;;;;;14.65;9.52;;;6.60;96.90;;;;;;5115381;28;20373;-51
2022/12/12 06:05:06;;;;;;;14.73;9.00;;;6.60;97.00;;;;;;5115164;28;20031;-51
2022/12/12 06:07:32;;;;;;;15.20;9.90;;;6.60;96.90;;;;;;5115090;28;20038;-56
2022/12/12 06:09:57;;;;;;;14.98;9.38;;;6.60;96.90;;;;;;5114814;28;20018;-49
2022/12/12 06:12:23;;;;;;;13.18;9.38;;;6.70;96.80;;;;;;5115249;28;20028;-50
2022/12/12 06:14:48;;;;;;;16.45;10.07;;;6.80;96.60;;;;;;5115252;28;20015;-52
2022/12/12 06:17:14;;;;;;;14.07;9.65;;;6.80;96.50;;;;;;5114988;28;20027;-50
2022/12/12 06:19:40;;;;;;;13.75;9.48;;;6.80;96.50;;;;;;5114431;28;20554;-47
2022/12/12 06:22:05;;;;;;;15.75;10.20;;;6.90;96.50;;;;;;5115028;28;20024;-47
2022/12/12 06:24:31;;;;;;;14.07;9.65;;;6.90;96.50;;;;;;5114982;28;20027;-50
2022/12/12 06:26:56;;;;;;;14.25;9.95;;;6.80;96.40;;;;;;5115043;28;20035;-46
2022/12/12 06:29:22;;;;;;;13.65;9.55;;;6.90;96.50;;;;;;5114417;28;20473;-47
2022/12/12 06:31:48;;;;;;;16.00;10.30;;;6.80;96.40;;;;;;5114834;28;20055;-47
2022/12/12 06:34:13;;;;;;;14.23;9.32;;;6.80;96.40;;;;;;5114615;28;20035;-48
2022/12/12 06:36:39;;;;;;;15.98;9.95;;;6.80;96.50;;;;;;5114580;28;20028;-46
2022/12/12 06:39:05;;;;;;;13.27;9.20;;;6.80;96.50;;;;;;5114188;28;20518;-49
2022/12/12 06:41:32;;;;;;;13.32;9.75;;;6.80;96.50;;;;;;5114601;28;20035;-49
2022/12/12 06:43:58;;;;;;;13.88;9.70;;;6.70;96.50;;;;;;5114708;28;20073;-50
2022/12/12 06:46:26;;;;;;;16.05;9.65;;;6.70;96.50;;;;;;5114581;28;20108;-48
2022/12/12 06:48:53;;;;;;;14.40;9.07;;;6.70;96.60;;;;;;5113905;28;20040;-45
2022/12/12 06:51:21;;;;;;;14.18;9.30;;;6.70;96.60;;;;;;5114555;28;20023;-48
2022/12/12 06:53:47;;;;;;;13.45;9.52;;;6.60;96.60;;;;;;5114642;28;20097;-47
2022/12/12 06:56:15;;;;;;;14.25;9.30;;;6.60;96.60;;;;;;5114304;28;20040;-46
2022/12/12 06:58:41;;;;;;;14.88;9.70;;;6.60;96.70;;;;;;5113717;28;20015;-47
2022/12/12 07:01:07;;;;;;;13.70;9.48;;;6.50;97.00;;;;;;5114334;28;20080;-46
2022/12/12 07:03:33;;;;;;;16.10;10.35;;;6.50;96.70;;;;;;5114113;28;20019;-45
2022/12/12 07:05:59;;;;;;;16.23;10.10;;;6.50;96.70;;;;;;5113526;28;20024;-47
2022/12/12 07:08:27;;;;;;;15.75;10.15;;;6.60;96.70;;;;;;5113492;28;20034;-48
2022/12/12 07:10:53;;;;;;;14.45;9.93;;;6.60;96.60;;;;;;5114094;28;20481;-46
2022/12/12 07:13:19;;;;;;;15.70;10.65;;;6.70;96.50;;;;;;5114121;27;20027;-45
2022/12/12 07:15:46;;;;;;;14.82;9.70;;;6.80;96.40;;;;;;5113967;28;20072;-49
2022/12/12 07:18:12;;;;;;;15.48;9.68;;;6.80;96.40;;;;;;5113257;28;20068;-46
2022/12/12 07:20:43;;;;;;;17.90;10.35;;;6.80;96.30;;;;;;5113966;28;20026;-46
2022/12/12 07:23:09;;;;;;;15.00;10.20;;;6.80;96.30;;;;;;5113918;28;20030;-47
2022/12/12 07:25:39;;;;;;;13.57;10.00;;;6.80;96.30;;;;;;5114177;28;20028;-46
2022/12/12 07:28:06;;;;;;;16.35;10.60;;;6.80;96.30;;;;;;5113242;28;20028;-46
2022/12/12 07:30:32;;;;;;;14.27;10.18;;;6.80;96.20;;;;;;5113672;28;20028;-48
2022/12/12 07:32:58;;;;;;;16.48;10.57;;;6.80;96.20;;;;;;5112703;28;20032;-48
2022/12/12 07:35:24;;;;;;;16.38;10.20;;;6.80;96.20;;;;;;5113592;28;20027;-48
2022/12/12 07:37:50;;;;;;;15.43;10.02;;;6.80;96.20;;;;;;5113365;28;20042;-49
2022/12/12 07:40:16;;;;;;;16.17;10.15;;;6.70;96.20;;;;;;5113145;28;20024;-48
2022/12/12 07:42:41;;;;;;;16.02;10.00;;;6.70;96.30;;;;;;5113368;28;20102;-50
2022/12/12 07:45:07;;;;;;;25.80;16.23;;;6.70;96.20;;;;;;5113434;27;20437;-56
2022/12/12 07:47:34;;;;;;;22.63;15.32;;;6.30;92.70;;;;;;5113270;28;20140;-58
2022/12/12 07:50:00;;;;;;;23.60;15.60;;;6.00;93.40;;;;;;5112898;28;20026;-53
2022/12/12 07:52:26;;;;;;;22.83;14.98;;;5.90;94.20;;;;;;5113315;28;20031;-53
2022/12/12 07:54:51;;;;;;;26.77;15.48;;;5.80;94.70;;;;;;5111933;28;20032;-56
2022/12/12 07:57:17;;;;;;;22.40;14.10;;;5.80;95.00;;;;;;5112859;28;20076;-55
2022/12/12 07:59:42;;;;;;;22.90;14.43;;;5.80;95.30;;;;;;5112696;28;20020;-55
2022/12/12 08:02:09;;;;;;;19.30;13.82;;;5.80;95.50;;;;;;5113073;28;20019;-53
2022/12/12 08:04:35;;;;;;;18.58;13.50;;;5.80;95.60;;;;;;5113049;28;20485;-55
2022/12/12 08:07:01;;;;;;;23.77;14.60;;;5.80;95.70;;;;;;5113371;28;20078;-55
2022/12/12 08:09:26;;;;;;;19.55;13.50;;;5.80;95.90;;;;;;5112856;28;20106;-55
2022/12/12 08:11:55;;;;;;;19.80;13.32;;;5.90;95.90;;;;;;5112696;28;20019;-56
2022/12/12 08:14:21;;;;;;;19.50;13.60;;;5.90;96.00;;;;;;5112901;28;20106;-56
2022/12/12 08:16:47;;;;;;;21.65;13.02;;;5.90;96.10;;;;;;5112650;28;20201;-57
2022/12/12 08:19:12;;;;;;;19.25;13.27;;;5.90;96.10;;;;;;5111298;28;20020;-54
2022/12/12 08:21:38;;;;;;;21.83;14.10;;;5.90;96.20;;;;;;5112453;28;20035;-55
2022/12/12 08:24:04;;;;;;;21.15;13.85;;;6.00;96.20;;;;;;5112747;28;20032;-55
2022/12/12 08:26:31;;;;;;;19.85;13.05;;;5.90;96.20;;;;;;5112493;27;20028;-57
2022/12/12 08:28:57;;;;;;;20.05;12.95;;;6.00;96.30;;;;;;5112025;28;20062;-57
2022/12/12 08:31:23;;;;;;;19.48;13.23;;;6.00;96.30;;;;;;5112580;28;20051;-57
2022/12/12 08:33:50;;;;;;;18.90;12.02;;;6.00;96.30;;;;;;5111600;28;20027;-52
2022/12/12 08:36:22;;;;;;;18.25;11.85;;;6.00;96.30;;;;;;5112502;28;20480;-55
2022/12/12 08:38:48;;;;;;;21.10;12.95;;;6.00;96.40;;;;;;5111949;28;20449;-53
2022/12/12 08:41:14;;;;;;;21.42;13.43;;;6.00;96.40;;;;;;5112448;28;20035;-56
2022/12/12 08:43:41;;;;;;;18.00;11.40;;;6.00;96.40;;;;;;5112432;28;20099;-55
2022/12/12 08:46:08;;;;;;;18.92;12.45;;;6.00;96.70;;;;;;5112324;28;20028;-54
2022/12/12 08:48:34;;;;;;;19.15;12.27;;;6.10;96.40;;;;;;5111503;28;20122;-53
2022/12/12 08:51:00;;;;;;;19.45;12.32;;;6.00;96.40;;;;;;5112689;28;20102;-55
2022/12/12 08:53:26;;;;;;;18.95;12.43;;;6.10;96.50;;;;;;5112176;28;20057;-54
2022/12/12 08:55:53;;;;;;;19.33;12.50;;;6.10;96.50;;;;;;5112311;28;20023;-53
2022/12/12 08:58:19;;;;;;;16.83;11.05;;;6.10;96.50;;;;;;5111469;28;20458;-55
2022/12/12 09:00:44;;;;;;;16.23;10.85;;;6.10;96.50;;;;;;5112029;28;20057;-54
2022/12/12 09:03:10;;;;;;;16.90;11.32;;;6.10;96.50;;;;;;5111817;28;20448;-53
2022/12/12 09:05:36;;;;;;;17.63;11.25;;;6.10;96.80;;;;;;5111931;28;20524;-55
2022/12/12 09:08:02;;;;;;;17.05;12.05;;;6.10;96.50;;;;;;5111559;27;20031;-57
2022/12/12 09:10:28;;;;;;;18.00;11.63;;;6.10;96.50;;;;;;5111916;28;20106;-52
2022/12/12 09:12:54;;;;;;;15.23;10.85;;;6.10;96.50;;;;;;5111807;28;20095;-52
2022/12/12 09:15:20;;;;;;;17.88;11.13;;;6.10;96.50;;;;;;5111657;28;20027;-52
2022/12/12 09:17:46;;;;;;;16.95;10.82;;;6.10;96.50;;;;;;5111373;28;20028;-55
2022/12/12 09:20:12;;;;;;;16.70;10.23;;;6.10;96.50;;;;;;5111313;28;20034;-53
2022/12/12 09:22:38;;;;;;;16.30;10.82;;;6.10;96.50;;;;;;5111700;28;20084;-53
2022/12/12 09:25:05;;;;;;;15.82;10.75;;;6.10;96.50;;;;;;5111686;28;20040;-53
2022/12/12 09:27:31;;;;;;;18.15;10.82;;;6.20;96.60;;;;;;5111425;28;20057;-58
2022/12/12 09:29:56;;;;;;;18.02;11.00;;;6.20;96.50;;;;;;5110885;28;20112;-54
2022/12/12 09:32:22;;;;;;;16.67;10.20;;;6.20;96.60;;;;;;5111951;28;20427;-55
2022/12/12 09:34:48;;;;;;;16.42;10.75;;;6.20;96.60;;;;;;5111836;28;20118;-54
2022/12/12 09:37:13;;;;;;;17.17;11.10;;;6.20;96.60;;;;;;5111638;28;20020;-54
2022/12/12 09:39:39;;;;;;;17.38;10.88;;;6.20;96.60;;;;;;5110859;28;20370;-56
2022/12/12 09:42:24;;;;;;;14.77;10.25;;;6.20;96.60;;;;;;5111420;28;20024;-57
2022/12/12 09:44:56;;;;;;;16.45;9.93;;;6.20;96.60;;;;;;5111271;28;20024;-58
2022/12/12 09:47:36;;;;;;;16.92;10.30;;;6.30;96.60;;;;;;5111282;28;20492;-53
2022/12/12 09:50:33;;;;;;;16.10;10.63;;;6.30;96.60;;;;;;5110955;28;20106;-58
2022/12/12 09:53:05;;;;;;;15.45;9.68;;;6.30;96.60;;;;;;5111334;28;20036;-57
2022/12/12 09:55:46;;;;;;;16.10;9.60;;;6.30;96.60;;;;;;5111152;28;20026;-59
2022/12/12 09:58:45;;;;;;;15.65;10.48;;;6.30;96.60;;;;;;5110590;28;20018;-57
2022/12/12 10:01:48;;;;;;;28.60;16.42;;;6.30;96.60;;;;;;5111289;28;20028;-50
2022/12/12 10:04:37;;;;;;;28.02;17.23;;;6.20;94.40;;;;;;5109934;28;20039;-51
2022/12/12 10:07:25;;;;;;;25.55;16.13;;;6.00;94.10;;;;;;5111214;28;20446;-49
2022/12/12 10:10:15;;;;;;;27.85;16.35;;;5.90;94.80;;;;;;5110576;28;20028;-52
2022/12/12 10:12:41;;;;;;;24.48;15.18;;;5.80;95.10;;;;;;5111323;28;20418;-49
2022/12/12 10:15:19;;;;;;;24.55;15.23;;;5.80;95.50;;;;;;5111158;28;20063;-49
2022/12/12 10:17:46;;;;;;;23.52;14.65;;;5.80;95.70;;;;;;5110920;28;20024;-58
2022/12/12 10:20:27;;;;;;;24.55;15.00;;;5.80;95.90;;;;;;5110563;28;20542;-49
2022/12/12 10:23:17;;;;;;;24.20;14.63;;;5.80;96.10;;;;;;5111059;28;20385;-49
2022/12/12 10:25:51;;;;;;;23.92;14.88;;;5.80;96.20;;;;;;5109740;28;20024;-52
2022/12/12 10:28:20;;;;;;;22.70;14.45;;;5.80;96.30;;;;;;5110463;28;20446;-52
2022/12/12 10:31:32;;;;;;;23.95;14.43;;;5.90;96.40;;;;;;5110917;28;20121;-50
2022/12/12 10:33:57;;;;;;;23.00;14.65;;;5.90;96.50;;;;;;5066921;28;20121;-51
2022/12/12 10:36:55;;;;;;;20.98;13.77;;;5.90;96.60;;;;;;5101918;28;20063;-55
2022/12/12 10:39:55;;;;;;;21.30;13.45;;;5.90;96.60;;;;;;5110332;28;20027;-49
2022/12/12 10:42:49;;;;;;;20.00;12.77;;;5.90;96.70;;;;;;5112864;28;20057;-49
2022/12/12 10:45:48;;;;;;;22.20;12.63;;;6.00;96.70;;;;;;5114656;28;20024;-49
2022/12/12 10:48:14;;;;;;;21.10;12.05;;;6.00;96.80;;;;;;5113892;28;20557;-51
2022/12/12 10:50:52;;;;;;;19.10;12.55;;;6.00;96.80;;;;;;5114446;28;20019;-49
2022/12/12 10:53:19;;;;;;;19.70;12.77;;;6.00;96.80;;;;;;5114513;28;20477;-52
2022/12/12 10:55:59;;;;;;;19.75;12.40;;;6.10;96.90;;;;;;5114461;28;20043;-49
2022/12/12 10:58:26;;;;;;;19.00;12.20;;;6.10;96.90;;;;;;5113915;28;20104;-49
2022/12/12 11:01:01;;;;;;;18.35;11.32;;;6.10;96.90;;;;;;5114363;28;20038;-54
2022/12/12 11:03:48;;;;;;;16.45;11.23;;;6.10;96.90;;;;;;5114366;28;20447;-52
2022/12/12 11:06:19;;;;;;;20.00;11.95;;;6.20;97.00;;;;;;5114341;28;20031;-49
2022/12/12 11:08:58;;;;;;;17.65;11.70;;;6.30;97.00;;;;;;5113568;27;20016;-49
2022/12/12 11:11:26;;;;;;;18.13;10.95;;;6.40;97.00;;;;;;5114599;28;20117;-51
2022/12/12 11:14:02;;;;;;;17.10;11.05;;;6.50;96.90;;;;;;5114042;28;20546;-49
2022/12/12 11:16:42;;;;;;;17.73;11.38;;;6.60;96.70;;;;;;5113917;28;20038;-51
2022/12/12 11:19:18;;;;;;;16.85;10.98;;;6.80;96.60;;;;;;5113489;28;20027;-50
2022/12/12 11:21:45;;;;;;;16.42;11.05;;;6.80;96.50;;;;;;5113819;28;20028;-49
2022/12/12 11:24:19;;;;;;;15.15;10.02;;;6.90;96.40;;;;;;5113768;28;20086;-49
2022/12/12 11:26:57;;;;;;;15.15;10.30;;;6.90;96.40;;;;;;5113736;28;20047;-50
2022/12/12 11:29:29;;;;;;;16.80;10.48;;;6.90;96.30;;;;;;5113224;28;20319;-49
2022/12/12 11:31:55;;;;;;;15.32;9.93;;;7.00;96.40;;;;;;5113691;27;20438;-49
2022/12/12 11:34:25;;;;;;;15.27;10.00;;;7.00;96.30;;;;;;5113467;28;20038;-50
2022/12/12 11:36:51;;;;;;;17.67;11.05;;;7.00;96.30;;;;;;5112124;28;20031;-51
2022/12/12 11:39:22;;;;;;;15.45;10.52;;;7.00;96.40;;;;;;5112932;28;20509;-49
2022/12/12 11:42:15;;;;;;;15.80;9.60;;;7.00;96.40;;;;;;5113539;28;20028;-54
2022/12/12 11:44:43;;;;;;;14.85;9.70;;;7.00;96.30;;;;;;5113447;28;20416;-49
2022/12/12 11:47:17;;;;;;;16.38;10.25;;;7.00;96.20;;;;;;5113267;28;20486;-50
2022/12/12 11:50:01;;;;;;;14.43;9.43;;;7.10;96.20;;;;;;5112925;28;20032;-49
2022/12/12 11:52:32;;;;;;;15.38;9.60;;;7.10;96.20;;;;;;5113253;28;20112;-50
2022/12/12 11:54:58;;;;;;;16.17;10.07;;;7.10;96.20;;;;;;5113303;28;20041;-49
2022/12/12 11:57:38;;;;;;;14.80;9.55;;;7.10;96.20;;;;;;5111489;28;20027;-49
2022/12/12 12:00:12;;;;;;;14.07;8.82;;;7.10;96.10;;;;;;5112904;28;20165;-49
2022/12/12 12:03:05;;;;;;;15.57;8.52;;;7.10;96.10;;;;;;5113245;28;20023;-49
2022/12/12 12:05:55;;;;;;;13.10;8.32;;;7.10;96.10;;;;;;5113119;28;20498;-53
2022/12/12 12:08:47;;;;;;;13.43;8.18;;;7.10;96.10;;;;;;5112525;28;20485;-52
2022/12/12 12:11:34;;;;;;;13.77;8.20;;;7.10;96.00;;;;;;5112927;28;20046;-49
2022/12/12 12:13:59;;;;;;;11.88;8.13;;;7.10;96.00;;;;;;5112800;28;20111;-49
2022/12/12 12:16:28;;;;;;;12.10;7.35;;;7.10;96.00;;;;;;5112713;28;20061;-56
2022/12/12 12:18:59;;;;;;;12.95;8.20;;;7.10;96.00;;;;;;5112303;28;20026;-50
2022/12/12 12:21:30;;;;;;;12.40;8.30;;;7.10;96.00;;;;;;5112841;28;20328;-49
2022/12/12 12:24:16;;;;;;;12.18;7.80;;;7.20;96.00;;;;;;5112751;28;20020;-54
2022/12/12 12:26:50;;;;;;;13.25;7.90;;;7.20;96.00;;;;;;5090574;28;20043;-50
2022/12/12 12:29:32;;;;;;;10.98;7.22;;;7.20;95.90;;;;;;5110856;28;20098;-53
2022/12/12 12:32:08;;;;;;;11.00;7.00;;;7.20;95.90;;;;;;5112776;28;20540;-53
2022/12/12 12:35:07;;;;;;;11.38;6.63;;;7.10;95.90;;;;;;5112636;28;20476;-52
2022/12/12 12:37:39;;;;;;;11.15;7.03;;;7.10;95.90;;;;;;5111819;28;20047;-55
2022/12/12 12:40:29;;;;;;;10.55;6.90;;;7.10;95.80;;;;;;5111841;28;20034;-52
2022/12/12 12:43:14;;;;;;;12.25;7.22;;;7.20;95.80;;;;;;5112414;28;20593;-52
2022/12/12 12:45:44;;;;;;;11.52;6.70;;;7.20;95.80;;;;;;5111060;28;20076;-49
2022/12/12 12:48:31;;;;;;;8.80;6.25;;;7.20;95.80;;;;;;5111699;28;20019;-49
2022/12/12 12:51:39;;;;;;;10.20;6.47;;;7.20;95.80;;;;;;5112212;28;20477;-50
2022/12/12 12:54:15;;;;;;;10.07;5.97;;;7.20;95.70;;;;;;5106239;28;20031;-49
2022/12/12 12:57:14;;;;;;;11.07;6.18;;;7.20;95.80;;;;;;5112103;28;20024;-53
2022/12/12 12:59:44;;;;;;;9.25;5.70;;;7.20;95.80;;;;;;5103719;28;20027;-49
2022/12/12 13:02:15;;;;;;;8.45;5.63;;;7.10;95.80;;;;;;5112274;28;20049;-49
2022/12/12 13:04:52;;;;;;;8.98;5.72;;;7.10;95.80;;;;;;5111618;28;20441;-49
2022/12/12 13:07:40;;;;;;;9.65;5.90;;;7.10;95.80;;;;;;5111889;28;20073;-49
2022/12/12 13:10:27;;;;;;;10.95;5.63;;;7.00;95.90;;;;;;5111422;28;20034;-54
2022/12/12 13:12:54;;;;;;;9.82;5.35;;;7.00;95.90;;;;;;5111790;28;20430;-50
2022/12/12 13:15:31;;;;;;;7.65;5.45;;;7.00;95.90;;;;;;5111835;28;20069;-49
2022/12/12 13:18:03;;;;;;;8.65;4.80;;;7.00;95.90;;;;;;5111305;28;20024;-57